Flight Track Log - Related Links

Times and Time Zones

All times are in EDT time to prevent confusion due to time zone crossing. See the N43451 flight status page for this flight to view local times or setup timezone preferences in your user account.

Time Position Orientation Groundspeed Altitude Reporting Facility
EDT Latitude Longitude Course Direction KTS MPH feet Rate Location/Type
Tue 01:50:24 PM 39.8333 -86.2833 339° North 79 91 1,200  Level Indianapolis TRACON
Tue 01:51:49 PM 39.8667 -86.3000 339° North 109 125 1,800 345 Climbing Indianapolis TRACON
Tue 01:52:43 PM 39.8667 -86.3333 270° West 120 138 2,000 278 Climbing Indianapolis TRACON
Tue 01:53:37 PM 39.8667 -86.3667 270° West 115 132 2,300 264 Climbing Indianapolis TRACON
Tue 01:54:14 PM 39.8742 -86.3936 290° West 115 132 2,400 122 Climbing Indianapolis Center
Tue 01:55:15 PM 39.8775 -86.4381 276° West 120 138 2,500 49 Climbing Indianapolis Center
Tue 01:56:17 PM 39.8825 -86.4922 277° West 124 143 2,500 -49 Level Indianapolis Center
Tue 01:57:18 PM 39.8861 -86.5386 276° West 127 146 2,400 -49 Descending Indianapolis Center
Tue 01:58:20 PM 39.8894 -86.5853 275° West 129 148 2,400 244 Level Indianapolis Center
Tue 01:59:21 PM 39.8911 -86.6286 273° West 126 145 2,900 488 Climbing Indianapolis Center
Tue 02:00:23 PM 39.8939 -86.6744 275° West 126 145 3,400 488 Climbing Indianapolis Center
Tue 02:01:24 PM 39.8978 -86.7169 277° West 123 142 3,900 488 Climbing Indianapolis Center
Tue 02:02:26 PM 39.9036 -86.7608 280° West 123 142 4,400 390 Climbing Indianapolis Center
Tue 02:03:27 PM 39.9083 -86.8183 276° West 128 147 4,700 293 Climbing Indianapolis Center
Tue 02:04:29 PM 39.9106 -86.8706 273° West 136 157 5,000 390 Climbing Indianapolis Center
Tue 02:05:30 PM 39.9144 -86.9181 276° West 137 158 5,500 488 Climbing Indianapolis Center
Tue 02:06:32 PM 39.9175 -86.9617 275° West 127 146 6,000 537 Climbing Indianapolis Center
Tue 02:07:33 PM 39.9197 -87.0058 274° West 124 143 6,600 244 Climbing Indianapolis Center
Tue 02:08:35 PM 39.9206 -87.0553 271° West 132 152 6,500 -98 Descending Indianapolis Center
Tue 02:09:36 PM 39.9278 -87.1069 280° West 142 163 6,400  Descending Indianapolis Center
Tue 02:10:38 PM 39.9325 -87.1703 276° West 146 168 6,500 49 Climbing Indianapolis Center
Tue 02:11:39 PM 39.9347 -87.2239 273° West 148 170 6,500 -49 Level Indianapolis Center
Tue 02:12:41 PM 39.9389 -87.2772 276° West 147 169 6,400 -49 Descending Indianapolis Center
Tue 02:13:42 PM 39.9436 -87.3289 277° West 146 168 6,400 49 Level Indianapolis Center
Tue 02:14:44 PM 39.9486 -87.3900 276° West 146 168 6,500 44 Climbing Indianapolis Center
Tue 02:15:58 PM 39.9486 -87.4436 270° West 146 168 6,500  Level Indianapolis Center
Tue 02:16:59 PM 39.9489 -87.4969 270° West 147 169 6,500 -49 Level Indianapolis Center
Tue 02:18:01 PM 39.9536 -87.5614 275° West 149 171 6,400 -49 Descending Indianapolis Center
Tue 02:19:02 PM 39.9592 -87.6142 278° West 149 171 6,400 49 Level Indianapolis Center
Tue 02:20:04 PM 39.9656 -87.6661 279° West 145 167 6,500 49 Climbing Indianapolis Center
Tue 02:21:05 PM 39.9706 -87.7203 277° West 150 173 6,500  Level Indianapolis Center
Tue 02:22:07 PM 39.9761 -87.7742 278° West 151 174 6,500  Level Indianapolis Center
Tue 02:23:08 PM 39.9808 -87.8283 277° West 150 173 6,500  Level Indianapolis Center
Tue 02:24:09 PM 39.9856 -87.8819 277° West 150 173 6,500  Level Indianapolis Center
Tue 02:25:10 PM 39.9914 -87.9367 278° West 151 174 6,500  Level Chicago Center
Tue 02:26:12 PM 39.9961 -88.0014 275° West 150 173 6,500  Level Chicago Center
Tue 02:27:14 PM 40.0011 -88.0553 277° West 151 174 6,500  Level Chicago Center
Tue 02:28:16 PM 40.0061 -88.1094 277° West 151 174 6,500  Level Chicago Center
Tue 02:29:18 PM 40.0100 -88.1661 275° West 150 173 6,500  Level Chicago Center
Tue 02:30:19 PM 40.0150 -88.2197 277° West 150 173 6,500  Level Chicago Center
Tue 02:31:21 PM 40.0214 -88.2725 279° West 147 169 6,500  Level Chicago Center
Tue 02:32:23 PM 40.0244 -88.3269 274° West 150 173 6,500  Level Chicago Center
Tue 02:33:25 PM 40.0292 -88.3806 277° West 149 171 6,500  Level Chicago Center
Tue 02:34:27 PM 40.0339 -88.4447 276° West 149 171 6,500  Level Chicago Center
Tue 02:35:29 PM 40.0386 -88.4989 277° West 150 173 6,500  Level Chicago Center
Tue 02:36:31 PM 40.0439 -88.5522 277° West 149 171 6,500  Level Chicago Center
Tue 02:37:33 PM 40.0478 -88.6056 275° West 148 170 6,500 48 Level Chicago Center
Tue 02:38:35 PM 40.0486 -88.6589 271° West 148 170 6,600 48 Climbing Chicago Center
Tue 02:39:37 PM 40.0336 -88.7108 249° West 151 174 6,600  Level Chicago Center
Tue 02:40:39 PM 40.0200 -88.7603 250° West 148 170 6,600 -48 Level Chicago Center
Tue 02:41:41 PM 40.0033 -88.8222 251° West 149 171 6,500  Descending Chicago Center
Tue 02:42:43 PM 39.9892 -88.8733 250° West 149 171 6,600  Climbing Chicago Center
Tue 02:43:45 PM 39.9750 -88.9233 250° West 148 170 6,500 -48 Descending Chicago Center
Tue 02:44:47 PM 39.9650 -88.9756 256° West 148 170 6,500  Level Chicago Center
Tue 02:45:49 PM 39.9539 -89.0289 255° West 150 173 6,500  Level Chicago Center
Tue 02:46:51 PM 39.9456 -89.0817 258° West 151 174 6,500  Level Chicago Center
Tue 02:47:53 PM 39.9369 -89.1433 260° West 148 170 6,500  Level Chicago Center
Tue 02:48:29 PM 39.9333 -89.1639 257° West 147 169 6,500  Level Kansas City Center
Tue 02:49:30 PM 39.9225 -89.2294 258° West 149 171 6,500  Level Kansas City Center
Tue 02:50:32 PM 39.9136 -89.2800 257° West 147 169 6,500  Level Kansas City Center
Tue 02:51:34 PM 39.9036 -89.3328 256° West 149 171 6,500  Level Kansas City Center
Tue 02:52:36 PM 39.8939 -89.3864 257° West 151 174 6,500  Level Kansas City Center
Tue 02:53:38 PM 39.8861 -89.4397 259° West 151 174 6,500  Level Kansas City Center
Tue 02:54:40 PM 39.8789 -89.4933 260° West 150 173 6,500 48 Level Kansas City Center
Tue 02:55:42 PM 39.8783 -89.5450 269° West 146 168 6,600 48 Climbing Kansas City Center
Tue 02:56:44 PM 39.8756 -89.6097 267° West 148 170 6,600 -48 Level Kansas City Center
Tue 02:57:46 PM 39.8797 -89.6614 276° West 146 168 6,500 -97 Descending Kansas City Center
Tue 02:58:48 PM 39.8850 -89.7128 278° West 144 166 6,400 -238 Descending Kansas City Center
Tue 02:59:52 PM 39.8828 -89.7675 267° West 148 170 6,000 -476 Descending Kansas City Center
Tue 03:00:54 PM 39.8700 -89.8269 254° West 165 190 5,400 -581 Descending Kansas City Center
Tue 03:01:56 PM 39.8664 -89.8836 265° West 161 185 4,800 -387 Descending Kansas City Center
Tue 03:02:58 PM 39.8689 -89.9514 273° West 157 181 4,600 -145 Descending Kansas City Center
Tue 03:04:00 PM 39.8717 -90.0053 274° West 152 175 4,500 -97 Descending Kansas City Center
Tue 03:05:02 PM 39.8728 -90.0606 272° West 152 175 4,400  Descending Kansas City Center
Tue 03:06:04 PM 39.8661 -90.1136 261° West 151 174 4,500  Climbing Kansas City Center
Tue 03:07:05 PM 39.8575 -90.1661 258° West 149 171 4,400 -49 Descending Kansas City Center
Tue 03:08:07 PM 39.8494 -90.2219 259° West 154 177 4,400 48 Level Kansas City Center
Tue 03:09:09 PM 39.8392 -90.2778 257° West 158 182 4,500 97 Climbing Kansas City Center
Tue 03:10:11 PM 39.8269 -90.3394 256° West 150 173 4,600 48 Climbing Kansas City Center
Tue 03:11:13 PM 39.8186 -90.3958 259° West 153 176 4,600 48 Level Kansas City Center
Tue 03:12:15 PM 39.8086 -90.4511 257° West 156 180 4,700 48 Climbing Kansas City Center
Tue 03:13:17 PM 39.7994 -90.5050 258° West 153 176 4,700 -48 Level Kansas City Center
Tue 03:14:19 PM 39.7917 -90.5578 259° West 151 174 4,600 -49 Descending Kansas City Center
Tue 03:15:20 PM 39.7858 -90.6111 262° West 149 171 4,600  Level Kansas City Center
Tue 03:16:22 PM 39.7811 -90.6636 263° West 147 169 4,600 -97 Level Kansas City Center
Tue 03:17:24 PM 39.7756 -90.7242 263° West 143 165 4,400 -48 Descending Kansas City Center
Tue 03:18:26 PM 39.7731 -90.7772 267° West 144 166 4,500 48 Climbing Kansas City Center
Tue 03:19:28 PM 39.7731 -90.8297 270° West 146 168 4,500  Level Kansas City Center
Tue 03:20:30 PM 39.7650 -90.8808 258° West 145 167 4,500  Level Kansas City Center
Tue 03:21:32 PM 39.7619 -90.9303 265° West 140 161 4,500 -48 Level Kansas City Center
Tue 03:22:34 PM 39.7597 -90.9858 267° West 143 165 4,400  Descending Kansas City Center
Tue 03:23:36 PM 39.7489 -91.0361 254° West 145 167 4,500 48 Climbing Kansas City Center
Tue 03:24:38 PM 39.7353 -91.0853 250° West 144 166 4,500 48 Level Kansas City Center
Tue 03:25:40 PM 39.7228 -91.1472 255° West 146 168 4,600 49 Climbing Kansas City Center
Tue 03:26:41 PM 39.7153 -91.1961 259° West 142 163 4,600 -49 Level Kansas City Center
Tue 03:27:43 PM 39.7083 -91.2444 259° West 138 159 4,500 -97 Descending Kansas City Center
Tue 03:28:45 PM 39.7033 -91.2953 263° West 140 161 4,400  Descending Kansas City Center
Tue 03:29:47 PM 39.6953 -91.3422 257° West 139 160 4,500 48 Climbing Kansas City Center
Tue 03:30:49 PM 39.6864 -91.3928 257° West 141 162 4,500  Level Kansas City Center
Tue 03:31:50 PM 39.6747 -91.4517 256° West 141 162 4,500 49 Level Kansas City Center
Tue 03:32:52 PM 39.6636 -91.5008 254° West 143 165 4,600  Climbing Kansas City Center
Tue 03:33:54 PM 39.6544 -91.5508 257° West 143 165 4,500 -48 Descending Kansas City Center
Tue 03:34:56 PM 39.6447 -91.6011 256° West 145 167 4,500  Level Kansas City Center
Tue 03:35:58 PM 39.6342 -91.6517 255° West 146 168 4,500 -49 Level Kansas City Center
Tue 03:36:59 PM 39.6214 -91.7108 254° West 144 166 4,400 -49 Descending Kansas City Center
Tue 03:38:01 PM 39.6117 -91.7606 256° West 145 167 4,400 48 Level Kansas City Center
Tue 03:39:03 PM 39.6008 -91.8075 253° West 140 161 4,500 48 Climbing Kansas City Center
Tue 03:40:05 PM 39.5917 -91.8572 257° West 141 162 4,500  Level Kansas City Center
Tue 03:41:06 PM 39.5842 -91.9061 259° West 141 162 4,500 -49 Level Kansas City Center
Tue 03:42:08 PM 39.5769 -91.9544 259° West 139 160 4,400 -48 Descending Kansas City Center
Tue 03:43:10 PM 39.5658 -92.0128 256° West 139 160 4,400 48 Level Kansas City Center
Tue 03:44:12 PM 39.5558 -92.0636 256° West 144 166 4,500 48 Climbing Kansas City Center
Tue 03:45:14 PM 39.5481 -92.1131 258° West 142 163 4,500  Level Kansas City Center
Tue 03:46:15 PM 39.5383 -92.1636 256° West 144 166 4,500  Level Kansas City Center
Tue 03:47:17 PM 39.5311 -92.2133 259° West 143 165 4,500 -48 Level Kansas City Center
Tue 03:48:19 PM 39.5231 -92.2611 258° West 139 160 4,400 -48 Descending Kansas City Center
Tue 03:49:21 PM 39.5125 -92.3208 257° West 141 162 4,400  Level Kansas City Center
Tue 03:50:23 PM 39.5044 -92.3681 258° West 139 160 4,400 48 Level Kansas City Center
Tue 03:51:25 PM 39.4956 -92.4147 256° West 135 155 4,500 48 Climbing Kansas City Center
Tue 03:52:27 PM 39.4864 -92.4636 256° West 138 159 4,500 -48 Level Kansas City Center
Tue 03:53:29 PM 39.4775 -92.5122 257° West 140 161 4,400 -98 Descending Kansas City Center
Tue 03:54:30 PM 39.4683 -92.5672 258° West 135 155 4,300  Descending Kansas City Center
Tue 03:55:32 PM 39.4600 -92.6144 257° West 134 154 4,400 48 Climbing Kansas City Center
Tue 03:56:34 PM 39.4514 -92.6603 256° West 133 153 4,400 48 Level Kansas City Center
Tue 03:57:36 PM 39.4408 -92.7069 254° West 134 154 4,500 97 Climbing Kansas City Center
Tue 03:58:38 PM 39.4303 -92.7542 254° West 138 159 4,600 145 Climbing Kansas City Center
Tue 03:59:40 PM 39.4211 -92.8050 257° West 142 163 4,800 -48 Climbing Kansas City Center
Tue 04:00:42 PM 39.4100 -92.8631 256° West 140 161 4,500 -194 Descending Kansas City Center
Tue 04:01:44 PM 39.4017 -92.9111 257° West 140 161 4,400 -97 Descending Kansas City Center
Tue 04:02:46 PM 39.3944 -92.9589 259° West 138 159 4,300 48 Descending Kansas City Center
Tue 04:03:48 PM 39.3806 -93.0047 249° West 138 159 4,500 48 Climbing Kansas City Center
Tue 04:04:50 PM 39.3664 -93.0494 248° West 137 158 4,400  Descending Kansas City Center
Tue 04:05:52 PM 39.3517 -93.1033 251° West 135 155 4,500 97 Climbing Kansas City Center
Tue 04:06:54 PM 39.3394 -93.1494 251° West 136 157 4,600 48 Climbing Kansas City Center
Tue 04:07:56 PM 39.3256 -93.1972 249° West 138 159 4,600 48 Level Kansas City Center
Tue 04:08:58 PM 39.3136 -93.2444 252° West 139 160 4,700 97 Climbing Kansas City Center
Tue 04:10:00 PM 39.2994 -93.2897 248° West 139 160 4,800  Climbing Kansas City Center
Tue 04:11:02 PM 39.2819 -93.3439 247° West 138 159 4,700 -48 Descending Kansas City Center
Tue 04:12:04 PM 39.2686 -93.3914 250° West 139 160 4,700  Level Kansas City Center
Tue 04:13:06 PM 39.2556 -93.4431 252° West 139 160 4,700  Level Kansas City Center
Tue 04:14:08 PM 39.2461 -93.4831 253° West 137 158 4,700  Level Kansas City Center
Tue 04:15:10 PM 39.2411 -93.5353 263° West 140 161 4,700 48 Level Kansas City Center
Tue 04:16:12 PM 39.2283 -93.5892 253° West 141 162 4,800  Climbing Kansas City Center
Tue 04:17:14 PM 39.2189 -93.6350 255° West 140 161 4,700 -48 Descending Kansas City Center
Tue 04:18:16 PM 39.2039 -93.6861 249° West 137 158 4,700 48 Level Kansas City Center
Tue 04:19:18 PM 39.1933 -93.7311 253° West 136 157 4,800 48 Climbing Kansas City Center
Tue 04:20:20 PM 39.1806 -93.7839 253° West 138 159 4,800 -48 Level Kansas City Center
Tue 04:21:22 PM 39.1694 -93.8297 253° West 139 160 4,700 -48 Descending Kansas City Center
Tue 04:22:24 PM 39.1581 -93.8819 254° West 135 155 4,700 -48 Level Kansas City Center
Tue 04:23:26 PM 39.1453 -93.9275 250° West 140 161 4,600 -48 Descending Kansas City Center
Tue 04:24:28 PM 39.1308 -93.9792 250° West 138 159 4,600 48 Level Kansas City Center
Tue 04:25:30 PM 39.1186 -94.0239 251° West 138 159 4,700  Climbing Kansas City Center
Tue 04:26:32 PM 39.1047 -94.0767 251° West 139 160 4,600 -97 Descending Kansas City Center
Tue 04:27:34 PM 39.0919 -94.1206 249° West 139 160 4,500 -48 Descending Kansas City Center
Tue 04:28:36 PM 39.0783 -94.1644 248° West 138 159 4,500  Level Kansas City Center
Tue 04:29:39 PM 39.0628 -94.2136 248° West 133 153 4,500  Level Kansas City Center
Tue 04:30:41 PM 39.0450 -94.2547 241° Southwest 135 155 4,500  Level Kansas City Center
Tue 04:31:43 PM 39.0225 -94.3006 238° Southwest 135 155 4,500  Level Kansas City Center
Tue 04:32:45 PM 39.0033 -94.3397 238° Southwest 135 155 4,500  Level Kansas City Center
Tue 04:33:47 PM 38.9814 -94.3853 238° Southwest 135 155 4,500  Level Kansas City Center
Tue 04:34:49 PM 38.9608 -94.4236 235° Southwest 136 157 4,500 -48 Level Kansas City Center
Tue 04:35:51 PM 38.9372 -94.4692 236° Southwest 137 158 4,400  Descending Kansas City Center
Tue 04:36:53 PM 38.9172 -94.5081 237° Southwest 135 155 4,500 48 Climbing Kansas City Center
Tue 04:37:55 PM 38.8944 -94.5558 239° Southwest 140 161 4,500 97 Level Kansas City Center
Tue 04:38:57 PM 38.8733 -94.5958 236° Southwest 141 162 4,700 48 Climbing Kansas City Center
Tue 04:39:59 PM 38.8486 -94.6456 237° Southwest 146 168 4,600 -48 Descending Kansas City Center
Tue 04:41:01 PM 38.8278 -94.6853 236° Southwest 143 165 4,600 -48 Level Kansas City Center
Tue 04:42:03 PM 38.8097 -94.7264 241° Southwest 139 160 4,500 -48 Descending Kansas City Center
Tue 04:43:05 PM 38.7847 -94.7686 233° Southwest 133 153 4,500 -48 Level Kansas City Center
Tue 04:44:07 PM 38.7642 -94.8031 233° Southwest 129 148 4,400  Descending Kansas City Center
Tue 04:45:09 PM 38.7431 -94.8461 238° Southwest 129 148 4,500 97 Climbing Kansas City Center
Tue 04:46:11 PM 38.7217 -94.8825 233° Southwest 132 152 4,600 48 Climbing Kansas City Center
Tue 04:47:13 PM 38.6939 -94.9236 229° Southwest 137 158 4,600 48 Level Kansas City Center
Tue 04:48:15 PM 38.6689 -94.9592 228° Southwest 140 161 4,700 97 Climbing Kansas City Center

Login

Don't have an account? Register now (free) for customized features, flight alerts, and more!